Richmond's Hourly Summary for Friday, March 17, 2017
Hour Temp
(f)
RH
(%)
Solar Rad.
(MJ/m2)
Rainfall
(in)
Wind
(mph)
3/17/2017 12:00 AM 66 89 0 0 8.94
3/17/2017 1:00 AM 66 89 0 0 8.09
3/17/2017 2:00 AM 65 89 0 0 8.44
3/17/2017 3:00 AM 65 89 0 0 6.53
3/17/2017 4:00 AM 64 90 0 0 6.26
3/17/2017 5:00 AM 64 90 0 0 5.96
3/17/2017 6:00 AM 64 90 0 0 5.66
3/17/2017 7:00 AM 64 91 0 0 5.53
3/17/2017 8:00 AM 63 92 0.03 0 4.61
3/17/2017 9:00 AM 65 87 0.3 0 5.73
3/17/2017 10:00 AM 70 74 1.26 0 10.74
3/17/2017 11:00 AM 73 63 1.49 0 15.26
3/17/2017 12:00 PM 75 61 1.1 0 13.64
3/17/2017 1:00 PM 77 53 2.16 0 14.51
3/17/2017 2:00 PM 79 51 2.66 0 14.89
3/17/2017 3:00 PM 80 50 2.42 0 15.08
3/17/2017 4:00 PM 79 50 2.07 0 14.82
3/17/2017 5:00 PM 77 57 1.07 0 14.29
3/17/2017 6:00 PM 76 60 0.73 0 13.35
3/17/2017 7:00 PM 74 64 0.43 0 12.61
3/17/2017 8:00 PM 71 68 0.05 0 9.75
3/17/2017 9:00 PM 69 74 0 0 6.87
3/17/2017 10:00 PM 66 80 0 0 4.93
3/17/2017 11:00 PM 65 85 0 0 5.25
Data Summary 69 74 15.77 0.00 9.66